dimanche 18 mai 2014

ALERTE SPOTTING 18/05/14 (MàJ 05h00)


319 G-EZBR easyJet (sticker '100 Airbus')
     U24242/U24243  09h30/10h00
  U24248/U24249  19h55/20h30

E90 F-HBLI Hop
    AF7543/AF393Y   09h45/10h15

E95 EC-LFZ Air Europa  (sticker)
    UX1223/UX1020  10h45/11h35
  arv UX1002 22h25

320 F-GHQE Air Corsica (blanc avec titre)
   XK4503/XK4502  11h50/12h55
  XK4505/XK4504  20h15/21h20

IL9 CU-T1250 Cubana
   CU444/CU445  13h00/15h00

73H TC-AZP Pegasus (sticker 'Asia')
   PC401/PC402  13h15/14h05

73H TC-AVP Pegasus (sticker 'Asia')
   PC873/PC874  17h40/18h30

Manque les prévisions de certains AB/AH/AZ/BA/BE/IB/KM/TP/TU

*** Horaires en Heure Locale ***
Prévisions matinales soumises à modifications de dernières minutes.

Voir le log du mois pour la version 'définitive' de la journée: 
 http://www.airkalo.com/ORLYAVIATION/Logdumois.html

le TAF de la journée:

METAR: LFPO 180230Z 35002KT CAVOK 11/07 Q1016 NOSIG=
TAF LONG: LFPO 172300Z 1800/1906 02005KT CAVOK BECMG 1806/1809 10007KT=